sensor_id;sensor_type;location;lat;lon;timestamp;pressure;altitude;pressure_sealevel;temperature;humidity
23176;BME280;19910;42.652;23.332;2023-04-08T00:00:28;94701.47;;;5.71;72.92
23176;BME280;19910;42.652;23.332;2023-04-08T00:02:56;94706.34;;;5.51;73.60
23176;BME280;19910;42.652;23.332;2023-04-08T00:05:24;94708.47;;;5.35;73.65
23176;BME280;19910;42.652;23.332;2023-04-08T00:07:50;94709.22;;;5.22;74.28
23176;BME280;19910;42.652;23.332;2023-04-08T00:10:17;94717.16;;;5.13;74.03
23176;BME280;19910;42.652;23.332;2023-04-08T00:12:44;94710.41;;;5.16;75.01
23176;BME280;19910;42.652;23.332;2023-04-08T00:15:11;94715.03;;;5.29;74.48
23176;BME280;19910;42.652;23.332;2023-04-08T00:17:38;94715.03;;;5.10;73.65
23176;BME280;19910;42.652;23.332;2023-04-08T00:20:05;94706.97;;;5.29;73.39
23176;BME280;19910;42.652;23.332;2023-04-08T00:22:34;94706.75;;;5.44;73.03
23176;BME280;19910;42.652;23.332;2023-04-08T00:25:00;94707.16;;;5.51;73.03
23176;BME280;19910;42.652;23.332;2023-04-08T00:27:31;94701.19;;;5.54;72.99
23176;BME280;19910;42.652;23.332;2023-04-08T00:29:57;94707.59;;;5.58;72.76
23176;BME280;19910;42.652;23.332;2023-04-08T00:32:24;94704.09;;;5.58;73.11
23176;BME280;19910;42.652;23.332;2023-04-08T00:34:51;94703.22;;;5.62;74.61
23176;BME280;19910;42.652;23.332;2023-04-08T00:37:18;94710.75;;;5.60;74.71
23176;BME280;19910;42.652;23.332;2023-04-08T00:39:46;94706.28;;;5.56;74.32
23176;BME280;19910;42.652;23.332;2023-04-08T00:42:13;94704.19;;;5.53;73.69
23176;BME280;19910;42.652;23.332;2023-04-08T00:44:40;94712.97;;;5.58;74.13
23176;BME280;19910;42.652;23.332;2023-04-08T00:47:11;94712.97;;;5.58;74.44
23176;BME280;19910;42.652;23.332;2023-04-08T00:49:37;94720.94;;;5.63;74.04
23176;BME280;19910;42.652;23.332;2023-04-08T00:52:04;94710.94;;;5.50;74.65
23176;BME280;19910;42.652;23.332;2023-04-08T00:54:31;94713.03;;;5.53;74.13
23176;BME280;19910;42.652;23.332;2023-04-08T00:56:59;94709.16;;;5.46;74.35
23176;BME280;19910;42.652;23.332;2023-04-08T00:59:27;94718.72;;;5.33;74.28
23176;BME280;19910;42.652;23.332;2023-04-08T01:02:00;94715.97;;;5.38;74.01
23176;BME280;19910;42.652;23.332;2023-04-08T01:04:38;94723.88;;;5.11;74.92
23176;BME280;19910;42.652;23.332;2023-04-08T01:07:10;94723.19;;;5.05;74.82
23176;BME280;19910;42.652;23.332;2023-04-08T01:09:43;94724.81;;;4.82;75.26
23176;BME280;19910;42.652;23.332;2023-04-08T01:12:18;94715.78;;;4.54;76.21
23176;BME280;19910;42.652;23.332;2023-04-08T01:14:47;94725.63;;;4.40;76.00
23176;BME280;19910;42.652;23.332;2023-04-08T01:17:18;94718.31;;;4.46;75.40
23176;BME280;19910;42.652;23.332;2023-04-08T01:19:46;94723.13;;;4.49;75.11
23176;BME280;19910;42.652;23.332;2023-04-08T01:22:26;94716.66;;;4.50;74.97
23176;BME280;19910;42.652;23.332;2023-04-08T01:24:59;94726.75;;;4.58;74.92
23176;BME280;19910;42.652;23.332;2023-04-08T01:27:30;94729.59;;;4.67;74.53
23176;BME280;19910;42.652;23.332;2023-04-08T01:29:58;94723.41;;;4.66;74.63
23176;BME280;19910;42.652;23.332;2023-04-08T01:32:27;94724.00;;;4.63;74.52
23176;BME280;19910;42.652;23.332;2023-04-08T01:34:55;94712.28;;;4.78;75.07
23176;BME280;19910;42.652;23.332;2023-04-08T01:37:22;94720.09;;;4.74;74.55
23176;BME280;19910;42.652;23.332;2023-04-08T01:39:51;94720.25;;;4.83;74.03
23176;BME280;19910;42.652;23.332;2023-04-08T01:42:19;94719.81;;;4.94;73.71
23176;BME280;19910;42.652;23.332;2023-04-08T01:44:49;94718.09;;;5.04;73.59
23176;BME280;19910;42.652;23.332;2023-04-08T01:47:17;94719.03;;;4.94;74.13
23176;BME280;19910;42.652;23.332;2023-04-08T01:49:44;94721.88;;;5.03;73.82
23176;BME280;19910;42.652;23.332;2023-04-08T01:52:13;94715.31;;;5.09;74.26
23176;BME280;19910;42.652;23.332;2023-04-08T01:54:41;94716.94;;;5.10;74.45
23176;BME280;19910;42.652;23.332;2023-04-08T01:57:11;94719.09;;;5.08;74.04
23176;BME280;19910;42.652;23.332;2023-04-08T01:59:41;94730.22;;;5.01;73.80
23176;BME280;19910;42.652;23.332;2023-04-08T02:02:10;94729.56;;;4.90;74.33
23176;BME280;19910;42.652;23.332;2023-04-08T02:04:37;94738.59;;;4.76;73.97
23176;BME280;19910;42.652;23.332;2023-04-08T02:07:04;94740.41;;;4.80;74.23
23176;BME280;19910;42.652;23.332;2023-04-08T02:09:31;94742.00;;;4.62;75.04
23176;BME280;19910;42.652;23.332;2023-04-08T02:11:58;94740.13;;;4.63;75.31
23176;BME280;19910;42.652;23.332;2023-04-08T02:14:26;94745.56;;;4.53;75.75
23176;BME280;19910;42.652;23.332;2023-04-08T02:16:54;94736.34;;;4.64;75.41
23176;BME280;19910;42.652;23.332;2023-04-08T02:19:29;94741.56;;;4.74;76.08
23176;BME280;19910;42.652;23.332;2023-04-08T02:22:03;94736.06;;;4.84;75.42
23176;BME280;19910;42.652;23.332;2023-04-08T02:24:31;94738.25;;;4.82;75.45
23176;BME280;19910;42.652;23.332;2023-04-08T02:26:59;94744.25;;;4.74;75.05
23176;BME280;19910;42.652;23.332;2023-04-08T02:29:30;94740.22;;;4.77;75.44
23176;BME280;19910;42.652;23.332;2023-04-08T02:32:00;94734.25;;;4.80;75.72
23176;BME280;19910;42.652;23.332;2023-04-08T02:34:29;94735.03;;;4.80;75.95
23176;BME280;19910;42.652;23.332;2023-04-08T02:36:56;94733.00;;;4.72;77.11
23176;BME280;19910;42.652;23.332;2023-04-08T02:39:29;94737.16;;;4.83;77.37
23176;BME280;19910;42.652;23.332;2023-04-08T02:41:56;94738.69;;;4.89;76.98
23176;BME280;19910;42.652;23.332;2023-04-08T02:44:24;94741.09;;;5.10;76.92
23176;BME280;19910;42.652;23.332;2023-04-08T02:46:50;94741.66;;;5.07;76.29
23176;BME280;19910;42.652;23.332;2023-04-08T02:49:17;94742.59;;;4.97;76.23
23176;BME280;19910;42.652;23.332;2023-04-08T02:51:45;94744.94;;;5.04;76.25
23176;BME280;19910;42.652;23.332;2023-04-08T02:54:12;94740.44;;;5.18;75.78
23176;BME280;19910;42.652;23.332;2023-04-08T02:56:39;94740.88;;;5.25;75.90
23176;BME280;19910;42.652;23.332;2023-04-08T02:59:06;94737.41;;;5.06;76.17
23176;BME280;19910;42.652;23.332;2023-04-08T03:01:32;94747.41;;;5.19;76.24
23176;BME280;19910;42.652;23.332;2023-04-08T03:03:59;94746.53;;;5.05;76.57
23176;BME280;19910;42.652;23.332;2023-04-08T03:06:26;94749.09;;;5.15;75.65
23176;BME280;19910;42.652;23.332;2023-04-08T03:08:54;94744.81;;;5.14;75.74
23176;BME280;19910;42.652;23.332;2023-04-08T03:11:21;94749.94;;;5.29;75.76
23176;BME280;19910;42.652;23.332;2023-04-08T03:13:47;94744.53;;;5.48;75.26
23176;BME280;19910;42.652;23.332;2023-04-08T03:16:14;94742.19;;;5.46;75.24
23176;BME280;19910;42.652;23.332;2023-04-08T03:18:41;94747.09;;;5.39;75.69
23176;BME280;19910;42.652;23.332;2023-04-08T03:21:07;94735.00;;;5.23;76.72
23176;BME280;19910;42.652;23.332;2023-04-08T03:23:35;94735.44;;;5.30;75.78
23176;BME280;19910;42.652;23.332;2023-04-08T03:26:03;94743.56;;;5.44;75.50
23176;BME280;19910;42.652;23.332;2023-04-08T03:28:30;94747.41;;;5.38;75.97
23176;BME280;19910;42.652;23.332;2023-04-08T03:30:56;94750.66;;;5.34;76.12
23176;BME280;19910;42.652;23.332;2023-04-08T03:33:25;94754.94;;;5.35;76.43
23176;BME280;19910;42.652;23.332;2023-04-08T03:35:52;94747.03;;;5.44;76.15
23176;BME280;19910;42.652;23.332;2023-04-08T03:38:19;94747.09;;;5.39;77.13
23176;BME280;19910;42.652;23.332;2023-04-08T03:40:46;94746.75;;;5.46;76.29
23176;BME280;19910;42.652;23.332;2023-04-08T03:43:14;94752.19;;;5.41;76.54
23176;BME280;19910;42.652;23.332;2023-04-08T03:45:41;94751.91;;;5.42;76.38
23176;BME280;19910;42.652;23.332;2023-04-08T03:48:08;94746.69;;;5.32;76.98
23176;BME280;19910;42.652;23.332;2023-04-08T03:50:35;94744.22;;;5.17;76.58
23176;BME280;19910;42.652;23.332;2023-04-08T03:53:01;94750.91;;;5.19;74.56
23176;BME280;19910;42.652;23.332;2023-04-08T03:55:28;94745.47;;;5.06;75.47
23176;BME280;19910;42.652;23.332;2023-04-08T03:57:55;94749.78;;;4.83;74.75
23176;BME280;19910;42.652;23.332;2023-04-08T04:00:23;94744.63;;;4.86;74.69
23176;BME280;19910;42.652;23.332;2023-04-08T04:02:50;94748.84;;;4.92;74.27
23176;BME280;19910;42.652;23.332;2023-04-08T04:05:17;94747.97;;;4.78;74.70
23176;BME280;19910;42.652;23.332;2023-04-08T04:07:44;94748.06;;;4.68;75.25
23176;BME280;19910;42.652;23.332;2023-04-08T04:10:10;94747.50;;;4.71;74.39
23176;BME280;19910;42.652;23.332;2023-04-08T04:12:37;94739.78;;;4.88;73.96
23176;BME280;19910;42.652;23.332;2023-04-08T04:15:05;94742.97;;;4.90;74.08
23176;BME280;19910;42.652;23.332;2023-04-08T04:17:33;94747.50;;;4.71;73.93
23176;BME280;19910;42.652;23.332;2023-04-08T04:20:02;94751.44;;;4.79;73.52
23176;BME280;19910;42.652;23.332;2023-04-08T04:22:29;94764.66;;;4.94;73.46
23176;BME280;19910;42.652;23.332;2023-04-08T04:24:56;94758.91;;;4.82;74.16
23176;BME280;19910;42.652;23.332;2023-04-08T04:27:23;94766.00;;;4.73;73.92
23176;BME280;19910;42.652;23.332;2023-04-08T04:29:50;94756.78;;;4.60;73.87
23176;BME280;19910;42.652;23.332;2023-04-08T04:32:16;94756.13;;;4.68;75.05
23176;BME280;19910;42.652;23.332;2023-04-08T04:34:45;94762.53;;;4.72;74.08
23176;BME280;19910;42.652;23.332;2023-04-08T04:37:11;94759.84;;;4.72;73.39
23176;BME280;19910;42.652;23.332;2023-04-08T04:39:38;94760.41;;;4.69;73.75
23176;BME280;19910;42.652;23.332;2023-04-08T04:42:05;94766.34;;;4.66;73.90
23176;BME280;19910;42.652;23.332;2023-04-08T04:44:32;94755.19;;;4.59;74.49
23176;BME280;19910;42.652;23.332;2023-04-08T04:46:58;94757.22;;;4.67;74.81
23176;BME280;19910;42.652;23.332;2023-04-08T04:49:25;94761.88;;;4.80;74.28
23176;BME280;19910;42.652;23.332;2023-04-08T04:51:53;94760.03;;;4.99;73.93
23176;BME280;19910;42.652;23.332;2023-04-08T04:54:20;94757.72;;;5.12;74.35
23176;BME280;19910;42.652;23.332;2023-04-08T04:56:47;94764.63;;;5.18;75.59
23176;BME280;19910;42.652;23.332;2023-04-08T04:59:13;94775.19;;;5.09;75.58
23176;BME280;19910;42.652;23.332;2023-04-08T05:01:40;94764.63;;;5.18;74.93
23176;BME280;19910;42.652;23.332;2023-04-08T05:04:07;94770.78;;;5.37;74.83
23176;BME280;19910;42.652;23.332;2023-04-08T05:06:34;94773.47;;;5.37;74.87
23176;BME280;19910;42.652;23.332;2023-04-08T05:09:02;94769.88;;;5.60;74.78
23176;BME280;19910;42.652;23.332;2023-04-08T05:11:28;94768.13;;;5.69;74.33
23176;BME280;19910;42.652;23.332;2023-04-08T05:13:55;94769.22;;;5.68;74.47
23176;BME280;19910;42.652;23.332;2023-04-08T05:16:22;94768.13;;;5.69;73.89
23176;BME280;19910;42.652;23.332;2023-04-08T05:18:49;94769.34;;;5.77;73.88
23176;BME280;19910;42.652;23.332;2023-04-08T05:21:15;94766.06;;;5.99;72.99
23176;BME280;19910;42.652;23.332;2023-04-08T05:23:42;94770.31;;;6.32;71.88
23176;BME280;19910;42.652;23.332;2023-04-08T05:26:10;94766.72;;;6.37;71.00
23176;BME280;19910;42.652;23.332;2023-04-08T05:28:37;94766.16;;;6.40;70.78
23176;BME280;19910;42.652;23.332;2023-04-08T05:31:04;94760.94;;;6.57;70.25
23176;BME280;19910;42.652;23.332;2023-04-08T05:33:30;94762.97;;;6.79;70.09
23176;BME280;19910;42.652;23.332;2023-04-08T05:35:57;94770.81;;;6.89;69.06
23176;BME280;19910;42.652;23.332;2023-04-08T05:38:24;94756.28;;;7.26;68.59
23176;BME280;19910;42.652;23.332;2023-04-08T05:40:54;94759.34;;;7.69;66.91
23176;BME280;19910;42.652;23.332;2023-04-08T05:43:22;94757.53;;;7.78;66.56
23176;BME280;19910;42.652;23.332;2023-04-08T05:45:49;94758.34;;;8.10;65.25
23176;BME280;19910;42.652;23.332;2023-04-08T05:48:16;94750.09;;;7.84;65.52
23176;BME280;19910;42.652;23.332;2023-04-08T05:50:42;94747.41;;;7.62;65.35
23176;BME280;19910;42.652;23.332;2023-04-08T05:53:09;94755.81;;;7.60;65.23
23176;BME280;19910;42.652;23.332;2023-04-08T05:55:36;94743.34;;;7.14;66.23
23176;BME280;19910;42.652;23.332;2023-04-08T05:58:03;94756.00;;;7.28;66.88
23176;BME280;19910;42.652;23.332;2023-04-08T06:00:31;94753.53;;;7.18;67.44
23176;BME280;19910;42.652;23.332;2023-04-08T06:02:58;94748.09;;;6.95;67.45
23176;BME280;19910;42.652;23.332;2023-04-08T06:05:25;94756.75;;;7.06;67.70
23176;BME280;19910;42.652;23.332;2023-04-08T06:07:52;94750.19;;;6.71;68.89
23176;BME280;19910;42.652;23.332;2023-04-08T06:10:18;94759.34;;;6.97;68.33
23176;BME280;19910;42.652;23.332;2023-04-08T06:12:45;94750.09;;;7.26;67.72
23176;BME280;19910;42.652;23.332;2023-04-08T06:15:12;94754.88;;;7.29;66.67
23176;BME280;19910;42.652;23.332;2023-04-08T06:17:40;94752.41;;;7.32;65.39
23176;BME280;19910;42.652;23.332;2023-04-08T06:20:07;94751.41;;;7.64;65.05
23176;BME280;19910;42.652;23.332;2023-04-08T06:22:34;94749.50;;;7.87;64.66
23176;BME280;19910;42.652;23.332;2023-04-08T06:25:02;94740.06;;;8.07;63.80
23176;BME280;19910;42.652;23.332;2023-04-08T06:27:29;94747.53;;;8.01;62.97
23176;BME280;19910;42.652;23.332;2023-04-08T06:29:56;94746.47;;;8.11;62.87
23176;BME280;19910;42.652;23.332;2023-04-08T06:32:23;94750.50;;;7.55;64.12
23176;BME280;19910;42.652;23.332;2023-04-08T06:34:52;94749.41;;;7.56;64.92
23176;BME280;19910;42.652;23.332;2023-04-08T06:37:18;94749.34;;;7.47;64.98
23176;BME280;19910;42.652;23.332;2023-04-08T06:39:46;94742.91;;;7.35;65.58
23176;BME280;19910;42.652;23.332;2023-04-08T06:42:12;94751.00;;;7.57;66.17
23176;BME280;19910;42.652;23.332;2023-04-08T06:44:40;94751.63;;;7.54;65.31
23176;BME280;19910;42.652;23.332;2023-04-08T06:47:06;94761.66;;;7.40;66.25
23176;BME280;19910;42.652;23.332;2023-04-08T06:49:33;94760.22;;;7.20;66.34
23176;BME280;19910;42.652;23.332;2023-04-08T06:52:05;94763.72;;;7.07;67.36
23176;BME280;19910;42.652;23.332;2023-04-08T06:54:32;94756.16;;;7.45;67.54
23176;BME280;19910;42.652;23.332;2023-04-08T06:56:59;94765.19;;;7.63;66.23
23176;BME280;19910;42.652;23.332;2023-04-08T06:59:25;94754.03;;;7.78;66.14
23176;BME280;19910;42.652;23.332;2023-04-08T07:01:52;94762.72;;;7.75;66.35
23176;BME280;19910;42.652;23.332;2023-04-08T07:04:19;94757.28;;;7.89;66.33
23176;BME280;19910;42.652;23.332;2023-04-08T07:06:46;94757.63;;;7.96;65.85
23176;BME280;19910;42.652;23.332;2023-04-08T07:09:14;94760.66;;;7.72;66.35
23176;BME280;19910;42.652;23.332;2023-04-08T07:11:40;94760.38;;;7.37;67.80
23176;BME280;19910;42.652;23.332;2023-04-08T07:14:07;94754.91;;;7.15;68.27
23176;BME280;19910;42.652;23.332;2023-04-08T07:16:34;94762.84;;;7.47;68.23
23176;BME280;19910;42.652;23.332;2023-04-08T07:19:01;94762.63;;;7.44;68.21
23176;BME280;19910;42.652;23.332;2023-04-08T07:21:27;94768.41;;;7.51;68.11
23176;BME280;19910;42.652;23.332;2023-04-08T07:23:55;94769.53;;;7.50;67.39
23176;BME280;19910;42.652;23.332;2023-04-08T07:26:23;94762.28;;;7.81;66.81
23176;BME280;19910;42.652;23.332;2023-04-08T07:28:50;94766.69;;;8.22;65.92
23176;BME280;19910;42.652;23.332;2023-04-08T07:31:17;94772.72;;;8.19;65.57
23176;BME280;19910;42.652;23.332;2023-04-08T07:33:44;94770.34;;;8.48;64.70
23176;BME280;19910;42.652;23.332;2023-04-08T07:36:12;94772.56;;;8.46;64.45
23176;BME280;19910;42.652;23.332;2023-04-08T07:38:39;94766.56;;;8.98;63.74
23176;BME280;19910;42.652;23.332;2023-04-08T07:41:06;94767.25;;;9.20;62.67
23176;BME280;19910;42.652;23.332;2023-04-08T07:43:34;94768.34;;;9.19;62.75
23176;BME280;19910;42.652;23.332;2023-04-08T07:46:02;94770.56;;;9.17;63.24
23176;BME280;19910;42.652;23.332;2023-04-08T07:48:29;94770.97;;;9.68;61.76
23176;BME280;19910;42.652;23.332;2023-04-08T07:50:56;94777.00;;;9.56;62.65
23176;BME280;19910;42.652;23.332;2023-04-08T07:53:23;94780.34;;;10.22;61.56
23176;BME280;19910;42.652;23.332;2023-04-08T07:55:51;94778.13;;;10.24;59.81
23176;BME280;19910;42.652;23.332;2023-04-08T07:58:17;94792.28;;;9.86;60.80
23176;BME280;19910;42.652;23.332;2023-04-08T08:00:46;94782.75;;;9.97;59.78
23176;BME280;19910;42.652;23.332;2023-04-08T08:03:12;94794.84;;;9.91;60.78
23176;BME280;19910;42.652;23.332;2023-04-08T08:05:39;94788.63;;;9.82;60.54
23176;BME280;19910;42.652;23.332;2023-04-08T08:08:06;94794.69;;;9.79;59.92
23176;BME280;19910;42.652;23.332;2023-04-08T08:10:33;94795.13;;;10.33;59.61
23176;BME280;19910;42.652;23.332;2023-04-08T08:12:59;94789.53;;;10.47;60.07
23176;BME280;19910;42.652;23.332;2023-04-08T08:15:26;94789.03;;;11.00;58.21
23176;BME280;19910;42.652;23.332;2023-04-08T08:17:54;94793.13;;;10.77;57.78
23176;BME280;19910;42.652;23.332;2023-04-08T08:20:21;94783.38;;;11.43;56.86
23176;BME280;19910;42.652;23.332;2023-04-08T08:22:48;94790.72;;;11.43;56.47
23176;BME280;19910;42.652;23.332;2023-04-08T08:25:15;94792.56;;;11.21;56.76
23176;BME280;19910;42.652;23.332;2023-04-08T08:27:42;94784.66;;;11.16;56.54
23176;BME280;19910;42.652;23.332;2023-04-08T08:30:10;94794.63;;;10.95;56.89
23176;BME280;19910;42.652;23.332;2023-04-08T08:32:37;94793.91;;;10.77;57.77
23176;BME280;19910;42.652;23.332;2023-04-08T08:35:05;94783.59;;;11.00;57.57
23176;BME280;19910;42.652;23.332;2023-04-08T08:37:32;94786.97;;;11.56;55.30
23176;BME280;19910;42.652;23.332;2023-04-08T08:39:59;94797.78;;;11.06;55.65
23176;BME280;19910;42.652;23.332;2023-04-08T08:42:26;94791.06;;;12.24;53.72
23176;BME280;19910;42.652;23.332;2023-04-08T08:44:53;94789.53;;;12.80;52.02
23176;BME280;19910;42.652;23.332;2023-04-08T08:47:20;94783.78;;;12.94;51.77
23176;BME280;19910;42.652;23.332;2023-04-08T08:49:47;94788.50;;;12.07;54.45
23176;BME280;19910;42.652;23.332;2023-04-08T08:52:16;94796.44;;;11.20;56.52
23176;BME280;19910;42.652;23.332;2023-04-08T08:54:43;94799.59;;;11.22;57.26
23176;BME280;19910;42.652;23.332;2023-04-08T08:57:17;94802.00;;;10.86;58.63
23176;BME280;19910;42.652;23.332;2023-04-08T08:59:45;94803.75;;;10.09;61.27
23176;BME280;19910;42.652;23.332;2023-04-08T09:02:23;94805.00;;;10.29;60.90
23176;BME280;19910;42.652;23.332;2023-04-08T09:04:55;94807.06;;;10.15;61.34
23176;BME280;19910;42.652;23.332;2023-04-08T09:07:25;94806.63;;;9.95;62.19
23176;BME280;19910;42.652;23.332;2023-04-08T09:09:53;94804.63;;;10.56;61.00
23176;BME280;19910;42.652;23.332;2023-04-08T09:12:20;94802.59;;;11.00;60.08
23176;BME280;19910;42.652;23.332;2023-04-08T09:14:47;94800.19;;;10.60;60.82
23176;BME280;19910;42.652;23.332;2023-04-08T09:17:14;94791.66;;;11.17;59.83
23176;BME280;19910;42.652;23.332;2023-04-08T09:20:03;94799.13;;;11.50;58.64
23176;BME280;19910;42.652;23.332;2023-04-08T09:22:54;94781.09;;;11.74;57.73
23176;BME280;19910;42.652;23.332;2023-04-08T09:25:25;94779.66;;;11.77;58.26
23176;BME280;19910;42.652;23.332;2023-04-08T09:27:52;94792.41;;;11.26;57.81
23176;BME280;19910;42.652;23.332;2023-04-08T09:30:21;94789.66;;;11.06;58.18
23176;BME280;19910;42.652;23.332;2023-04-08T09:32:49;94792.63;;;11.13;57.75
23176;BME280;19910;42.652;23.332;2023-04-08T09:35:17;94778.81;;;11.56;56.67
23176;BME280;19910;42.652;23.332;2023-04-08T09:37:46;94773.75;;;11.75;55.91
23176;BME280;19910;42.652;23.332;2023-04-08T09:40:13;94782.81;;;12.54;53.18
23176;BME280;19910;42.652;23.332;2023-04-08T09:42:43;94770.78;;;13.36;51.38
23176;BME280;19910;42.652;23.332;2023-04-08T09:45:11;94766.81;;;13.34;52.08
23176;BME280;19910;42.652;23.332;2023-04-08T09:47:47;94780.13;;;11.79;54.27
23176;BME280;19910;42.652;23.332;2023-04-08T09:50:19;94770.50;;;11.61;56.81
23176;BME280;19910;42.652;23.332;2023-04-08T09:53:09;94775.41;;;11.38;57.39
23176;BME280;19910;42.652;23.332;2023-04-08T09:55:37;94768.66;;;11.23;58.55
23176;BME280;19910;42.652;23.332;2023-04-08T09:58:09;94774.63;;;10.79;59.48
23176;BME280;19910;42.652;23.332;2023-04-08T10:00:39;94756.53;;;10.53;60.04
23176;BME280;19910;42.652;23.332;2023-04-08T10:03:19;94767.44;;;11.12;58.68
23176;BME280;19910;42.652;23.332;2023-04-08T10:05:47;94761.63;;;11.22;54.90
23176;BME280;19910;42.652;23.332;2023-04-08T10:08:16;94761.41;;;11.57;55.08
23176;BME280;19910;42.652;23.332;2023-04-08T10:10:43;94754.41;;;11.97;56.04
23176;BME280;19910;42.652;23.332;2023-04-08T10:13:11;94760.25;;;11.37;57.26
23176;BME280;19910;42.652;23.332;2023-04-08T10:15:38;94761.38;;;11.15;58.27
23176;BME280;19910;42.652;23.332;2023-04-08T10:18:29;94760.94;;;10.66;60.01
23176;BME280;19910;42.652;23.332;2023-04-08T10:20:57;94767.88;;;10.47;59.88
23176;BME280;19910;42.652;23.332;2023-04-08T10:23:52;94760.72;;;10.80;59.33
23176;BME280;19910;42.652;23.332;2023-04-08T10:26:30;94756.59;;;11.12;58.87
23176;BME280;19910;42.652;23.332;2023-04-08T10:29:32;94758.03;;;11.10;59.19
23176;BME280;19910;42.652;23.332;2023-04-08T10:31:59;94755.66;;;11.08;58.35
23176;BME280;19910;42.652;23.332;2023-04-08T10:34:30;94763.09;;;10.82;59.78
23176;BME280;19910;42.652;23.332;2023-04-08T10:36:56;94746.22;;;11.14;60.67
23176;BME280;19910;42.652;23.332;2023-04-08T10:39:29;94746.47;;;11.21;61.79
23176;BME280;19910;42.652;23.332;2023-04-08T10:41:56;94744.38;;;11.06;59.62
23176;BME280;19910;42.652;23.332;2023-04-08T10:44:24;94745.88;;;11.16;60.17
23176;BME280;19910;42.652;23.332;2023-04-08T10:46:52;94736.78;;;11.20;60.02
23176;BME280;19910;42.652;23.332;2023-04-08T10:49:19;94729.53;;;11.54;58.18
23176;BME280;19910;42.652;23.332;2023-04-08T10:51:47;94730.69;;;11.65;56.48
23176;BME280;19910;42.652;23.332;2023-04-08T10:54:16;94719.72;;;12.60;54.28
23176;BME280;19910;42.652;23.332;2023-04-08T10:56:48;94720.44;;;13.06;52.33
23176;BME280;19910;42.652;23.332;2023-04-08T10:59:16;94713.88;;;13.07;52.83
23176;BME280;19910;42.652;23.332;2023-04-08T11:01:45;94723.16;;;12.81;53.88
23176;BME280;19910;42.652;23.332;2023-04-08T11:04:13;94717.91;;;12.40;54.19
23176;BME280;19910;42.652;23.332;2023-04-08T11:06:41;94713.50;;;12.02;55.14
23176;BME280;19910;42.652;23.332;2023-04-08T11:09:09;94715.78;;;11.59;56.70
23176;BME280;19910;42.652;23.332;2023-04-08T11:11:36;94719.47;;;11.75;56.26
23176;BME280;19910;42.652;23.332;2023-04-08T11:14:05;94718.53;;;11.92;55.62
23176;BME280;19910;42.652;23.332;2023-04-08T11:16:33;94706.78;;;11.88;54.88
23176;BME280;19910;42.652;23.332;2023-04-08T11:19:01;94710.72;;;11.90;54.59
23176;BME280;19910;42.652;23.332;2023-04-08T11:21:29;94703.59;;;12.31;53.56
23176;BME280;19910;42.652;23.332;2023-04-08T11:23:56;94699.16;;;12.84;51.80
23176;BME280;19910;42.652;23.332;2023-04-08T11:26:24;94692.56;;;12.72;51.51
23176;BME280;19910;42.652;23.332;2023-04-08T11:28:52;94690.47;;;12.21;52.94
23176;BME280;19910;42.652;23.332;2023-04-08T11:31:21;94685.56;;;12.02;53.46
23176;BME280;19910;42.652;23.332;2023-04-08T11:33:52;94695.03;;;12.29;53.29
23176;BME280;19910;42.652;23.332;2023-04-08T11:36:19;94684.84;;;12.87;52.94
23176;BME280;19910;42.652;23.332;2023-04-08T11:38:47;94679.44;;;12.74;51.58
23176;BME280;19910;42.652;23.332;2023-04-08T11:41:14;94672.50;;;13.38;50.39
23176;BME280;19910;42.652;23.332;2023-04-08T11:43:55;94677.75;;;12.94;49.74
23176;BME280;19910;42.652;23.332;2023-04-08T11:46:24;94688.38;;;12.87;50.02
23176;BME280;19910;42.652;23.332;2023-04-08T11:49:04;94658.56;;;13.27;50.44
23176;BME280;19910;42.652;23.332;2023-04-08T11:51:31;94667.31;;;13.88;48.38
23176;BME280;19910;42.652;23.332;2023-04-08T11:53:59;94671.91;;;13.44;48.83
23176;BME280;19910;42.652;23.332;2023-04-08T11:56:26;94671.72;;;13.01;50.85
23176;BME280;19910;42.652;23.332;2023-04-08T11:58:55;94650.28;;;13.36;50.32
23176;BME280;19910;42.652;23.332;2023-04-08T12:01:22;94669.16;;;13.84;49.77
23176;BME280;19910;42.652;23.332;2023-04-08T12:04:00;94655.50;;;14.12;47.54
23176;BME280;19910;42.652;23.332;2023-04-08T12:06:27;94655.81;;;13.95;48.30
23176;BME280;19910;42.652;23.332;2023-04-08T12:08:56;94655.00;;;13.79;47.68
23176;BME280;19910;42.652;23.332;2023-04-08T12:11:28;94650.75;;;13.66;47.67
23176;BME280;19910;42.652;23.332;2023-04-08T12:13:55;94650.03;;;13.97;48.35
23176;BME280;19910;42.652;23.332;2023-04-08T12:16:22;94635.97;;;14.54;47.09
23176;BME280;19910;42.652;23.332;2023-04-08T12:18:49;94631.13;;;14.63;47.55
23176;BME280;19910;42.652;23.332;2023-04-08T12:21:19;94630.47;;;14.22;48.20
23176;BME280;19910;42.652;23.332;2023-04-08T12:23:46;94638.19;;;13.09;50.73
23176;BME280;19910;42.652;23.332;2023-04-08T12:26:13;94652.75;;;12.07;52.67
23176;BME280;19910;42.652;23.332;2023-04-08T12:28:40;94621.38;;;11.85;52.80
23176;BME280;19910;42.652;23.332;2023-04-08T12:31:06;94622.97;;;11.86;54.41
23176;BME280;19910;42.652;23.332;2023-04-08T12:33:33;94631.00;;;11.95;54.20
23176;BME280;19910;42.652;23.332;2023-04-08T12:36:00;94641.63;;;11.67;54.27
23176;BME280;19910;42.652;23.332;2023-04-08T12:38:31;94637.03;;;11.47;54.70
23176;BME280;19910;42.652;23.332;2023-04-08T12:40:57;94636.47;;;11.74;54.51
23176;BME280;19910;42.652;23.332;2023-04-08T12:43:24;94633.56;;;12.24;52.33
23176;BME280;19910;42.652;23.332;2023-04-08T12:45:53;94635.38;;;11.54;53.19
23176;BME280;19910;42.652;23.332;2023-04-08T12:48:20;94638.25;;;11.16;54.78
23176;BME280;19910;42.652;23.332;2023-04-08T12:50:47;94621.44;;;11.02;55.52
23176;BME280;19910;42.652;23.332;2023-04-08T12:53:15;94639.44;;;11.27;55.56
23176;BME280;19910;42.652;23.332;2023-04-08T12:55:43;94635.06;;;11.14;55.43
23176;BME280;19910;42.652;23.332;2023-04-08T12:58:10;94634.41;;;11.17;55.95
23176;BME280;19910;42.652;23.332;2023-04-08T13:00:37;94631.22;;;11.15;57.08
23176;BME280;19910;42.652;23.332;2023-04-08T13:03:04;94638.50;;;11.23;57.14